sensor_id;sensor_type;location;lat;lon;timestamp;pressure;altitude;pressure_sealevel;temperature;humidity
78407;BME280;67692;51.074;-1.790;2024-01-06T00:00:33;100536.09;;;6.30;100.00
78407;BME280;67692;51.074;-1.790;2024-01-06T00:03:00;100540.16;;;6.34;100.00
78407;BME280;67692;51.074;-1.790;2024-01-06T00:05:27;100547.78;;;6.35;100.00
78407;BME280;67692;51.074;-1.790;2024-01-06T00:07:53;100538.50;;;6.33;100.00
78407;BME280;67692;51.074;-1.790;2024-01-06T00:10:20;100542.88;;;6.31;100.00
78407;BME280;67692;51.074;-1.790;2024-01-06T00:12:48;100548.13;;;6.29;100.00
78407;BME280;67692;51.074;-1.790;2024-01-06T00:15:15;100551.25;;;6.18;100.00
78407;BME280;67692;51.074;-1.790;2024-01-06T00:17:41;100541.97;;;6.16;100.00
78407;BME280;67692;51.074;-1.790;2024-01-06T00:20:09;100547.75;;;6.19;100.00
78407;BME280;67692;51.074;-1.790;2024-01-06T00:22:36;100546.94;;;6.19;100.00
78407;BME280;67692;51.074;-1.790;2024-01-06T00:25:02;100550.94;;;6.24;100.00
78407;BME280;67692;51.074;-1.790;2024-01-06T00:27:29;100555.34;;;6.22;100.00
78407;BME280;67692;51.074;-1.790;2024-01-06T00:29:57;100556.22;;;6.21;100.00
78407;BME280;67692;51.074;-1.790;2024-01-06T00:32:24;100555.19;;;6.25;100.00
78407;BME280;67692;51.074;-1.790;2024-01-06T00:34:50;100560.31;;;6.25;100.00
78407;BME280;67692;51.074;-1.790;2024-01-06T00:37:17;100563.72;;;6.26;100.00
78407;BME280;67692;51.074;-1.790;2024-01-06T00:39:44;100571.72;;;6.20;100.00
78407;BME280;67692;51.074;-1.790;2024-01-06T00:42:10;100575.81;;;6.24;100.00
78407;BME280;67692;51.074;-1.790;2024-01-06T00:44:37;100567.34;;;6.22;100.00
78407;BME280;67692;51.074;-1.790;2024-01-06T00:47:05;100570.91;;;6.19;100.00
78407;BME280;67692;51.074;-1.790;2024-01-06T00:49:32;100577.03;;;6.17;100.00
78407;BME280;67692;51.074;-1.790;2024-01-06T00:51:59;100574.63;;;6.14;100.00
78407;BME280;67692;51.074;-1.790;2024-01-06T00:54:25;100571.06;;;6.16;100.00
78407;BME280;67692;51.074;-1.790;2024-01-06T00:56:52;100564.53;;;6.11;100.00
78407;BME280;67692;51.074;-1.790;2024-01-06T00:59:19;100569.13;;;6.04;100.00
78407;BME280;67692;51.074;-1.790;2024-01-06T01:01:45;100579.13;;;6.10;100.00
78407;BME280;67692;51.074;-1.790;2024-01-06T01:04:13;100574.88;;;6.09;100.00
78407;BME280;67692;51.074;-1.790;2024-01-06T01:06:40;100574.88;;;6.09;100.00
78407;BME280;67692;51.074;-1.790;2024-01-06T01:09:07;100583.94;;;6.16;100.00
78407;BME280;67692;51.074;-1.790;2024-01-06T01:11:35;100587.16;;;6.20;100.00
78407;BME280;67692;51.074;-1.790;2024-01-06T01:14:02;100586.19;;;6.22;100.00
78407;BME280;67692;51.074;-1.790;2024-01-06T01:16:29;100581.06;;;6.22;100.00
78407;BME280;67692;51.074;-1.790;2024-01-06T01:18:57;100591.34;;;6.22;100.00
78407;BME280;67692;51.074;-1.790;2024-01-06T01:21:25;100593.00;;;6.23;100.00
78407;BME280;67692;51.074;-1.790;2024-01-06T01:23:52;100592.91;;;6.25;100.00
78407;BME280;67692;51.074;-1.790;2024-01-06T01:26:18;100599.72;;;6.26;100.00
78407;BME280;67692;51.074;-1.790;2024-01-06T01:28:45;100596.16;;;6.29;100.00
78407;BME280;67692;51.074;-1.790;2024-01-06T01:31:12;100595.63;;;6.22;100.00
78407;BME280;67692;51.074;-1.790;2024-01-06T01:33:39;100599.88;;;6.23;100.00
78407;BME280;67692;51.074;-1.790;2024-01-06T01:36:06;100599.44;;;6.15;100.00
78407;BME280;67692;51.074;-1.790;2024-01-06T01:38:34;100608.88;;;6.14;100.00
78407;BME280;67692;51.074;-1.790;2024-01-06T01:41:00;100616.75;;;6.11;100.00
78407;BME280;67692;51.074;-1.790;2024-01-06T01:43:27;100615.47;;;6.03;100.00
78407;BME280;67692;51.074;-1.790;2024-01-06T01:45:54;100621.38;;;6.05;100.00
78407;BME280;67692;51.074;-1.790;2024-01-06T01:48:22;100614.28;;;6.10;100.00
78407;BME280;67692;51.074;-1.790;2024-01-06T01:50:51;100622.91;;;6.09;100.00
78407;BME280;67692;51.074;-1.790;2024-01-06T01:53:19;100621.63;;;6.00;100.00
78407;BME280;67692;51.074;-1.790;2024-01-06T01:55:49;100635.06;;;6.05;100.00
78407;BME280;67692;51.074;-1.790;2024-01-06T01:58:16;100632.56;;;6.04;100.00
78407;BME280;67692;51.074;-1.790;2024-01-06T02:00:43;100633.63;;;6.00;100.00
78407;BME280;67692;51.074;-1.790;2024-01-06T02:03:11;100638.78;;;6.00;100.00
78407;BME280;67692;51.074;-1.790;2024-01-06T02:05:39;100630.81;;;6.04;100.00
78407;BME280;67692;51.074;-1.790;2024-01-06T02:08:06;100634.00;;;6.09;100.00
78407;BME280;67692;51.074;-1.790;2024-01-06T02:10:32;100647.59;;;6.11;100.00
78407;BME280;67692;51.074;-1.790;2024-01-06T02:13:09;100641.63;;;6.11;99.49
78407;BME280;67692;51.074;-1.790;2024-01-06T02:15:36;100647.78;;;6.08;99.94
78407;BME280;67692;51.074;-1.790;2024-01-06T02:18:03;100645.94;;;6.10;100.00
78407;BME280;67692;51.074;-1.790;2024-01-06T02:20:30;100649.28;;;6.12;100.00
78407;BME280;67692;51.074;-1.790;2024-01-06T02:22:59;100657.22;;;6.08;99.62
78407;BME280;67692;51.074;-1.790;2024-01-06T02:25:26;100653.03;;;6.05;99.31
78407;BME280;67692;51.074;-1.790;2024-01-06T02:27:53;100658.88;;;6.09;98.90
78407;BME280;67692;51.074;-1.790;2024-01-06T02:30:19;100663.56;;;6.01;98.77
78407;BME280;67692;51.074;-1.790;2024-01-06T02:32:46;100664.56;;;5.98;98.95
78407;BME280;67692;51.074;-1.790;2024-01-06T02:35:13;100649.88;;;6.00;99.16
78407;BME280;67692;51.074;-1.790;2024-01-06T02:37:39;100646.56;;;5.98;98.98
78407;BME280;67692;51.074;-1.790;2024-01-06T02:40:09;100657.09;;;5.93;99.52
78407;BME280;67692;51.074;-1.790;2024-01-06T02:42:35;100661.38;;;5.93;99.66
78407;BME280;67692;51.074;-1.790;2024-01-06T02:45:03;100668.94;;;5.96;99.11
78407;BME280;67692;51.074;-1.790;2024-01-06T02:47:29;100660.63;;;5.91;99.59
78407;BME280;67692;51.074;-1.790;2024-01-06T02:49:56;100658.97;;;5.90;99.29
78407;BME280;67692;51.074;-1.790;2024-01-06T02:52:22;100669.06;;;5.93;99.46
78407;BME280;67692;51.074;-1.790;2024-01-06T02:54:49;100667.41;;;5.92;99.60
78407;BME280;67692;51.074;-1.790;2024-01-06T02:57:18;100665.88;;;5.88;99.66
78407;BME280;67692;51.074;-1.790;2024-01-06T02:59:44;100669.53;;;5.84;99.77
78407;BME280;67692;51.074;-1.790;2024-01-06T03:02:11;100666.94;;;5.84;99.97
78407;BME280;67692;51.074;-1.790;2024-01-06T03:04:38;100668.63;;;5.85;98.96
78407;BME280;67692;51.074;-1.790;2024-01-06T03:07:04;100669.59;;;5.82;99.56
78407;BME280;67692;51.074;-1.790;2024-01-06T03:09:31;100670.44;;;5.83;100.00
78407;BME280;67692;51.074;-1.790;2024-01-06T03:11:57;100685.47;;;5.73;100.00
78407;BME280;67692;51.074;-1.790;2024-01-06T03:14:25;100681.91;;;5.76;99.94
78407;BME280;67692;51.074;-1.790;2024-01-06T03:16:51;100689.84;;;5.71;99.84
78407;BME280;67692;51.074;-1.790;2024-01-06T03:19:18;100685.84;;;5.65;100.00
78407;BME280;67692;51.074;-1.790;2024-01-06T03:21:45;100691.09;;;5.62;100.00
78407;BME280;67692;51.074;-1.790;2024-01-06T03:24:11;100705.00;;;5.58;100.00
78407;BME280;67692;51.074;-1.790;2024-01-06T03:26:38;100702.75;;;5.52;100.00
78407;BME280;67692;51.074;-1.790;2024-01-06T03:29:04;100709.63;;;5.52;100.00
78407;BME280;67692;51.074;-1.790;2024-01-06T03:31:32;100706.34;;;5.48;100.00
78407;BME280;67692;51.074;-1.790;2024-01-06T03:33:59;100706.97;;;5.53;100.00
78407;BME280;67692;51.074;-1.790;2024-01-06T03:36:26;100716.69;;;5.47;99.93
78407;BME280;67692;51.074;-1.790;2024-01-06T03:38:52;100705.44;;;5.49;100.00
78407;BME280;67692;51.074;-1.790;2024-01-06T03:41:19;100717.94;;;5.57;100.00
78407;BME280;67692;51.074;-1.790;2024-01-06T03:43:46;100725.03;;;5.52;100.00
78407;BME280;67692;51.074;-1.790;2024-01-06T03:46:12;100723.56;;;5.46;100.00
78407;BME280;67692;51.074;-1.790;2024-01-06T03:48:40;100722.97;;;5.41;99.82
78407;BME280;67692;51.074;-1.790;2024-01-06T03:51:07;100723.66;;;5.45;100.00
78407;BME280;67692;51.074;-1.790;2024-01-06T03:53:34;100722.81;;;5.44;100.00
78407;BME280;67692;51.074;-1.790;2024-01-06T03:56:00;100720.41;;;5.41;100.00
78407;BME280;67692;51.074;-1.790;2024-01-06T03:58:27;100726.59;;;5.37;100.00
78407;BME280;67692;51.074;-1.790;2024-01-06T04:00:53;100730.91;;;5.36;100.00
78407;BME280;67692;51.074;-1.790;2024-01-06T04:03:20;100733.47;;;5.36;100.00
78407;BME280;67692;51.074;-1.790;2024-01-06T04:05:48;100741.84;;;5.40;100.00
78407;BME280;67692;51.074;-1.790;2024-01-06T04:08:15;100746.22;;;5.38;100.00
78407;BME280;67692;51.074;-1.790;2024-01-06T04:10:42;100739.63;;;5.32;99.66
78407;BME280;67692;51.074;-1.790;2024-01-06T04:13:08;100752.19;;;5.20;100.00
78407;BME280;67692;51.074;-1.790;2024-01-06T04:15:35;100751.41;;;5.18;100.00
78407;BME280;67692;51.074;-1.790;2024-01-06T04:18:03;100753.91;;;5.19;99.88
78407;BME280;67692;51.074;-1.790;2024-01-06T04:20:30;100754.06;;;5.16;100.00
78407;BME280;67692;51.074;-1.790;2024-01-06T04:22:58;100758.22;;;5.19;100.00
78407;BME280;67692;51.074;-1.790;2024-01-06T04:25:25;100754.72;;;5.21;100.00
78407;BME280;67692;51.074;-1.790;2024-01-06T04:27:52;100767.53;;;5.21;100.00
78407;BME280;67692;51.074;-1.790;2024-01-06T04:30:19;100761.56;;;5.21;100.00
78407;BME280;67692;51.074;-1.790;2024-01-06T04:32:45;100773.28;;;5.26;100.00
78407;BME280;67692;51.074;-1.790;2024-01-06T04:35:13;100774.44;;;5.19;100.00
78407;BME280;67692;51.074;-1.790;2024-01-06T04:37:40;100773.91;;;5.13;99.42
78407;BME280;67692;51.074;-1.790;2024-01-06T04:40:09;100777.22;;;5.15;100.00
78407;BME280;67692;51.074;-1.790;2024-01-06T04:42:36;100773.63;;;5.19;100.00
78407;BME280;67692;51.074;-1.790;2024-01-06T04:45:04;100776.97;;;5.21;99.76
78407;BME280;67692;51.074;-1.790;2024-01-06T04:47:31;100780.41;;;5.20;100.00
78407;BME280;67692;51.074;-1.790;2024-01-06T04:49:57;100783.81;;;5.20;100.00
78407;BME280;67692;51.074;-1.790;2024-01-06T04:52:24;100782.94;;;5.21;99.95
78407;BME280;67692;51.074;-1.790;2024-01-06T04:54:50;100780.16;;;5.26;99.66
78407;BME280;67692;51.074;-1.790;2024-01-06T04:57:19;100790.28;;;5.29;100.00
78407;BME280;67692;51.074;-1.790;2024-01-06T04:59:46;100779.47;;;5.22;99.05
78407;BME280;67692;51.074;-1.790;2024-01-06T05:02:13;100782.88;;;5.23;100.00
78407;BME280;67692;51.074;-1.790;2024-01-06T05:04:39;100780.84;;;5.29;99.52
78407;BME280;67692;51.074;-1.790;2024-01-06T05:07:06;100786.97;;;5.27;100.00
78407;BME280;67692;51.074;-1.790;2024-01-06T05:09:32;100788.69;;;5.26;100.00
78407;BME280;67692;51.074;-1.790;2024-01-06T05:11:59;100799.03;;;5.25;100.00
78407;BME280;67692;51.074;-1.790;2024-01-06T05:14:27;100792.38;;;5.21;99.69
78407;BME280;67692;51.074;-1.790;2024-01-06T05:16:54;100794.72;;;5.25;99.39
78407;BME280;67692;51.074;-1.790;2024-01-06T05:19:21;100798.28;;;5.23;100.00
78407;BME280;67692;51.074;-1.790;2024-01-06T05:21:47;100800.34;;;5.15;99.60
78407;BME280;67692;51.074;-1.790;2024-01-06T05:24:14;100798.59;;;5.15;99.85
78407;BME280;67692;51.074;-1.790;2024-01-06T05:26:41;100803.41;;;5.23;100.00
78407;BME280;67692;51.074;-1.790;2024-01-06T05:29:08;100806.44;;;5.12;99.87
78407;BME280;67692;51.074;-1.790;2024-01-06T05:31:36;100810.53;;;5.16;99.10
78407;BME280;67692;51.074;-1.790;2024-01-06T05:34:02;100811.91;;;5.04;99.45
78407;BME280;67692;51.074;-1.790;2024-01-06T05:36:30;100809.25;;;5.06;100.00
78407;BME280;67692;51.074;-1.790;2024-01-06T05:38:56;100818.31;;;5.15;100.00
78407;BME280;67692;51.074;-1.790;2024-01-06T05:41:24;100821.78;;;5.14;100.00
78407;BME280;67692;51.074;-1.790;2024-01-06T05:43:50;100813.94;;;5.17;100.00
78407;BME280;67692;51.074;-1.790;2024-01-06T05:46:21;100819.13;;;5.15;99.59
78407;BME280;67692;51.074;-1.790;2024-01-06T05:48:49;100827.88;;;5.11;99.32
78407;BME280;67692;51.074;-1.790;2024-01-06T05:51:16;100818.69;;;5.05;99.87
78407;BME280;67692;51.074;-1.790;2024-01-06T05:53:43;100832.50;;;5.03;99.73
78407;BME280;67692;51.074;-1.790;2024-01-06T05:56:09;100842.44;;;5.11;99.72
78407;BME280;67692;51.074;-1.790;2024-01-06T05:58:36;100840.91;;;5.06;100.00
78407;BME280;67692;51.074;-1.790;2024-01-06T06:01:03;100852.88;;;5.06;100.00
78407;BME280;67692;51.074;-1.790;2024-01-06T06:03:30;100852.97;;;5.04;100.00
78407;BME280;67692;51.074;-1.790;2024-01-06T06:05:58;100857.16;;;5.07;100.00
78407;BME280;67692;51.074;-1.790;2024-01-06T06:08:25;100857.09;;;5.08;100.00
78407;BME280;67692;51.074;-1.790;2024-01-06T06:10:51;100853.63;;;5.10;100.00
78407;BME280;67692;51.074;-1.790;2024-01-06T06:13:27;100861.03;;;5.16;100.00
78407;BME280;67692;51.074;-1.790;2024-01-06T06:15:53;100870.47;;;5.15;100.00
78407;BME280;67692;51.074;-1.790;2024-01-06T06:18:20;100878.44;;;5.09;99.58
78407;BME280;67692;51.074;-1.790;2024-01-06T06:20:47;100883.38;;;5.14;99.64
78407;BME280;67692;51.074;-1.790;2024-01-06T06:23:15;100884.19;;;5.14;99.07
78407;BME280;67692;51.074;-1.790;2024-01-06T06:25:41;100890.16;;;5.15;99.67
78407;BME280;67692;51.074;-1.790;2024-01-06T06:28:08;100895.81;;;5.02;100.00
78407;BME280;67692;51.074;-1.790;2024-01-06T06:30:35;100901.63;;;5.07;100.00
78407;BME280;67692;51.074;-1.790;2024-01-06T06:33:01;100901.66;;;5.06;100.00
78407;BME280;67692;51.074;-1.790;2024-01-06T06:35:28;100910.97;;;5.08;100.00
78407;BME280;67692;51.074;-1.790;2024-01-06T06:37:55;100917.06;;;5.06;100.00
78407;BME280;67692;51.074;-1.790;2024-01-06T06:40:23;100912.94;;;5.02;100.00
78407;BME280;67692;51.074;-1.790;2024-01-06T06:42:49;100919.97;;;4.98;99.96
78407;BME280;67692;51.074;-1.790;2024-01-06T06:45:16;100921.88;;;4.93;100.00
78407;BME280;67692;51.074;-1.790;2024-01-06T06:47:46;100935.41;;;4.97;100.00
78407;BME280;67692;51.074;-1.790;2024-01-06T06:50:12;100940.75;;;4.92;100.00
78407;BME280;67692;51.074;-1.790;2024-01-06T06:52:39;100937.53;;;4.87;99.71
78407;BME280;67692;51.074;-1.790;2024-01-06T06:55:07;100944.31;;;4.88;100.00
78407;BME280;67692;51.074;-1.790;2024-01-06T06:57:35;100943.88;;;4.78;100.00
78407;BME280;67692;51.074;-1.790;2024-01-06T07:00:02;100949.72;;;4.82;100.00
78407;BME280;67692;51.074;-1.790;2024-01-06T07:02:29;100967.13;;;4.74;99.95
78407;BME280;67692;51.074;-1.790;2024-01-06T07:04:56;100955.22;;;4.73;100.00
78407;BME280;67692;51.074;-1.790;2024-01-06T07:07:22;100956.38;;;4.66;99.71
78407;BME280;67692;51.074;-1.790;2024-01-06T07:09:49;100965.94;;;4.61;100.00
78407;BME280;67692;51.074;-1.790;2024-01-06T07:12:16;100968.91;;;4.52;99.77
78407;BME280;67692;51.074;-1.790;2024-01-06T07:14:44;100976.22;;;4.61;100.00
78407;BME280;67692;51.074;-1.790;2024-01-06T07:17:10;100966.78;;;4.61;100.00
78407;BME280;67692;51.074;-1.790;2024-01-06T07:19:38;100966.22;;;4.55;99.73
78407;BME280;67692;51.074;-1.790;2024-01-06T07:22:04;100973.13;;;4.53;100.00
78407;BME280;67692;51.074;-1.790;2024-01-06T07:24:31;100974.78;;;4.54;100.00
78407;BME280;67692;51.074;-1.790;2024-01-06T07:26:58;100980.94;;;4.50;100.00
78407;BME280;67692;51.074;-1.790;2024-01-06T07:29:24;100984.28;;;4.52;100.00
78407;BME280;67692;51.074;-1.790;2024-01-06T07:31:52;100989.28;;;4.55;100.00
78407;BME280;67692;51.074;-1.790;2024-01-06T07:34:19;100987.44;;;4.58;100.00
78407;BME280;67692;51.074;-1.790;2024-01-06T07:36:46;101000.31;;;4.57;100.00
78407;BME280;67692;51.074;-1.790;2024-01-06T07:39:12;101008.47;;;4.44;100.00
78407;BME280;67692;51.074;-1.790;2024-01-06T07:41:39;101004.84;;;4.50;100.00
78407;BME280;67692;51.074;-1.790;2024-01-06T07:44:06;101015.13;;;4.50;100.00
78407;BME280;67692;51.074;-1.790;2024-01-06T07:46:32;101018.72;;;4.44;100.00
78407;BME280;67692;51.074;-1.790;2024-01-06T07:49:01;101016.16;;;4.44;100.00
78407;BME280;67692;51.074;-1.790;2024-01-06T07:51:28;101025.53;;;4.45;100.00
78407;BME280;67692;51.074;-1.790;2024-01-06T07:53:55;101029.75;;;4.46;100.00
78407;BME280;67692;51.074;-1.790;2024-01-06T07:56:21;101029.88;;;4.43;100.00
78407;BME280;67692;51.074;-1.790;2024-01-06T07:58:48;101023.91;;;4.43;100.00
78407;BME280;67692;51.074;-1.790;2024-01-06T08:01:15;101033.34;;;4.42;100.00
78407;BME280;67692;51.074;-1.790;2024-01-06T08:03:41;101042.94;;;4.37;100.00
78407;BME280;67692;51.074;-1.790;2024-01-06T08:06:10;101044.06;;;4.30;100.00
78407;BME280;67692;51.074;-1.790;2024-01-06T08:08:37;101048.34;;;4.30;100.00
78407;BME280;67692;51.074;-1.790;2024-01-06T08:11:04;101063.72;;;4.30;100.00
78407;BME280;67692;51.074;-1.790;2024-01-06T08:13:30;101053.53;;;4.28;100.00
78407;BME280;67692;51.074;-1.790;2024-01-06T08:15:57;101059.78;;;4.21;100.00
78407;BME280;67692;51.074;-1.790;2024-01-06T08:18:24;101068.56;;;4.14;100.00
78407;BME280;67692;51.074;-1.790;2024-01-06T08:20:51;101089.06;;;4.14;100.00
78407;BME280;67692;51.074;-1.790;2024-01-06T08:23:19;101085.75;;;4.12;100.00
78407;BME280;67692;51.074;-1.790;2024-01-06T08:25:46;101090.16;;;4.08;100.00
78407;BME280;67692;51.074;-1.790;2024-01-06T08:28:13;101093.31;;;4.15;100.00
78407;BME280;67692;51.074;-1.790;2024-01-06T08:30:41;101104.25;;;4.20;100.00
78407;BME280;67692;51.074;-1.790;2024-01-06T08:33:08;101099.78;;;4.25;100.00
78407;BME280;67692;51.074;-1.790;2024-01-06T08:35:35;101114.31;;;4.25;100.00
78407;BME280;67692;51.074;-1.790;2024-01-06T08:38:05;101111.72;;;4.26;100.00
78407;BME280;67692;51.074;-1.790;2024-01-06T08:40:33;101113.13;;;4.35;100.00
78407;BME280;67692;51.074;-1.790;2024-01-06T08:43:01;101122.53;;;4.34;100.00
78407;BME280;67692;51.074;-1.790;2024-01-06T08:45:27;101124.81;;;4.42;100.00
78407;BME280;67692;51.074;-1.790;2024-01-06T08:47:54;101119.34;;;4.51;100.00
78407;BME280;67692;51.074;-1.790;2024-01-06T08:50:21;101128.41;;;4.60;100.00
78407;BME280;67692;51.074;-1.790;2024-01-06T08:52:48;101131.53;;;4.68;100.00
78407;BME280;67692;51.074;-1.790;2024-01-06T08:55:14;101124.88;;;4.64;100.00
78407;BME280;67692;51.074;-1.790;2024-01-06T08:57:43;101139.41;;;4.63;100.00
78407;BME280;67692;51.074;-1.790;2024-01-06T09:00:10;101149.69;;;4.63;100.00
78407;BME280;67692;51.074;-1.790;2024-01-06T09:02:37;101155.72;;;4.61;100.00
78407;BME280;67692;51.074;-1.790;2024-01-06T09:05:04;101156.63;;;4.60;100.00
78407;BME280;67692;51.074;-1.790;2024-01-06T09:07:31;101156.03;;;4.53;100.00
78407;BME280;67692;51.074;-1.790;2024-01-06T09:09:57;101161.94;;;4.55;100.00
78407;BME280;67692;51.074;-1.790;2024-01-06T09:12:24;101169.38;;;4.61;100.00
78407;BME280;67692;51.074;-1.790;2024-01-06T09:14:52;101169.25;;;4.66;100.00
78407;BME280;67692;51.074;-1.790;2024-01-06T09:17:19;101182.72;;;4.71;100.00
78407;BME280;67692;51.074;-1.790;2024-01-06T09:19:47;101181.66;;;4.76;100.00
78407;BME280;67692;51.074;-1.790;2024-01-06T09:22:14;101183.94;;;4.84;100.00
78407;BME280;67692;51.074;-1.790;2024-01-06T09:24:41;101178.81;;;4.84;100.00
78407;BME280;67692;51.074;-1.790;2024-01-06T09:27:08;101193.03;;;4.93;100.00
78407;BME280;67692;51.074;-1.790;2024-01-06T09:29:34;101193.75;;;4.96;100.00
78407;BME280;67692;51.074;-1.790;2024-01-06T09:32:03;101191.78;;;5.03;100.00
78407;BME280;67692;51.074;-1.790;2024-01-06T09:34:30;101193.94;;;5.14;100.00
78407;BME280;67692;51.074;-1.790;2024-01-06T09:36:56;101202.53;;;5.13;100.00
78407;BME280;67692;51.074;-1.790;2024-01-06T09:39:23;101205.28;;;5.08;99.86
78407;BME280;67692;51.074;-1.790;2024-01-06T09:41:49;101210.19;;;5.14;100.00
78407;BME280;67692;51.074;-1.790;2024-01-06T09:44:16;101213.38;;;5.21;100.00
78407;BME280;67692;51.074;-1.790;2024-01-06T09:46:44;101220.06;;;5.25;100.00
78407;BME280;67692;51.074;-1.790;2024-01-06T09:49:12;101219.81;;;5.31;100.00
78407;BME280;67692;51.074;-1.790;2024-01-06T09:51:40;101224.59;;;5.40;99.61
78407;BME280;67692;51.074;-1.790;2024-01-06T09:54:09;101226.31;;;5.40;99.27
78407;BME280;67692;51.074;-1.790;2024-01-06T09:56:36;101217.78;;;5.39;98.82
78407;BME280;67692;51.074;-1.790;2024-01-06T09:59:03;101230.69;;;5.37;99.05
78407;BME280;67692;51.074;-1.790;2024-01-06T10:01:30;101225.44;;;5.41;99.41
78407;BME280;67692;51.074;-1.790;2024-01-06T10:03:57;101240.59;;;5.47;100.00
78407;BME280;67692;51.074;-1.790;2024-01-06T10:06:25;101235.94;;;5.56;100.00
78407;BME280;67692;51.074;-1.790;2024-01-06T10:08:54;101242.56;;;5.62;100.00
78407;BME280;67692;51.074;-1.790;2024-01-06T10:11:22;101247.88;;;5.57;99.60
78407;BME280;67692;51.074;-1.790;2024-01-06T10:13:49;101251.34;;;5.56;99.97
78407;BME280;67692;51.074;-1.790;2024-01-06T10:16:16;101249.56;;;5.58;99.61
78407;BME280;67692;51.074;-1.790;2024-01-06T10:18:43;101253.84;;;5.58;99.29
78407;BME280;67692;51.074;-1.790;2024-01-06T10:21:10;101248.59;;;5.61;99.34
78407;BME280;67692;51.074;-1.790;2024-01-06T10:23:39;101250.94;;;5.67;99.13
78407;BME280;67692;51.074;-1.790;2024-01-06T10:26:12;101259.63;;;5.63;99.22
78407;BME280;67692;51.074;-1.790;2024-01-06T10:28:39;101262.28;;;5.61;98.60
78407;BME280;67692;51.074;-1.790;2024-01-06T10:31:08;101263.84;;;5.65;99.11
78407;BME280;67692;51.074;-1.790;2024-01-06T10:33:35;101262.19;;;5.64;98.93
78407;BME280;67692;51.074;-1.790;2024-01-06T10:36:02;101263.78;;;5.67;99.24
78407;BME280;67692;51.074;-1.790;2024-01-06T10:38:30;101254.28;;;5.69;99.44
78407;BME280;67692;51.074;-1.790;2024-01-06T10:40:59;101265.69;;;5.62;97.97
78407;BME280;67692;51.074;-1.790;2024-01-06T10:43:28;101261.63;;;5.56;98.10
78407;BME280;67692;51.074;-1.790;2024-01-06T10:45:56;101261.50;;;5.59;98.65
78407;BME280;67692;51.074;-1.790;2024-01-06T10:48:24;101263.28;;;5.57;97.54
78407;BME280;67692;51.074;-1.790;2024-01-06T10:50:51;101256.38;;;5.59;98.64
78407;BME280;67692;51.074;-1.790;2024-01-06T10:53:20;101263.16;;;5.60;98.46
78407;BME280;67692;51.074;-1.790;2024-01-06T10:55:49;101255.84;;;5.51;97.85
78407;BME280;67692;51.074;-1.790;2024-01-06T10:58:17;101255.53;;;5.59;98.44
78407;BME280;67692;51.074;-1.790;2024-01-06T11:00:44;101264.97;;;5.58;98.27
78407;BME280;67692;51.074;-1.790;2024-01-06T11:03:13;101269.25;;;5.58;99.42
78407;BME280;67692;51.074;-1.790;2024-01-06T11:05:40;101265.69;;;5.62;98.25
78407;BME280;67692;51.074;-1.790;2024-01-06T11:08:07;101266.50;;;5.62;99.51
78407;BME280;67692;51.074;-1.790;2024-01-06T11:10:36;101268.84;;;5.68;99.39
78407;BME280;67692;51.074;-1.790;2024-01-06T11:13:11;101260.19;;;5.71;98.94
78407;BME280;67692;51.074;-1.790;2024-01-06T11:15:44;101269.63;;;5.71;98.73
78407;BME280;67692;51.074;-1.790;2024-01-06T11:18:32;101257.63;;;5.71;99.17
78407;BME280;67692;51.074;-1.790;2024-01-06T11:21:15;101265.44;;;5.68;98.84
78407;BME280;67692;51.074;-1.790;2024-01-06T11:23:44;101258.38;;;5.73;99.46
78407;BME280;67692;51.074;-1.790;2024-01-06T11:26:13;101259.09;;;5.77;98.77
78407;BME280;67692;51.074;-1.790;2024-01-06T11:28:44;101264.13;;;5.80;98.92
78407;BME280;67692;51.074;-1.790;2024-01-06T11:31:13;101263.31;;;5.79;98.07
78407;BME280;67692;51.074;-1.790;2024-01-06T11:33:43;101267.47;;;5.82;98.44
78407;BME280;67692;51.074;-1.790;2024-01-06T11:36:14;101275.13;;;5.83;98.00
78407;BME280;67692;51.074;-1.790;2024-01-06T11:38:41;101281.16;;;5.82;97.62
78407;BME280;67692;51.074;-1.790;2024-01-06T11:41:50;101275.13;;;5.83;98.05
78407;BME280;67692;51.074;-1.790;2024-01-06T11:44:18;101279.16;;;5.89;98.50
78407;BME280;67692;51.074;-1.790;2024-01-06T11:46:47;101276.50;;;5.92;97.49
78407;BME280;67692;51.074;-1.790;2024-01-06T11:49:15;101276.41;;;5.95;97.33
78407;BME280;67692;51.074;-1.790;2024-01-06T11:51:41;101272.75;;;6.01;97.41
78407;BME280;67692;51.074;-1.790;2024-01-06T11:54:09;101270.22;;;5.99;97.39
78407;BME280;67692;51.074;-1.790;2024-01-06T11:56:37;101271.78;;;6.03;95.82
78407;BME280;67692;51.074;-1.790;2024-01-06T11:59:05;101262.66;;;5.96;95.13
78407;BME280;67692;51.074;-1.790;2024-01-06T12:01:36;101263.16;;;6.04;96.15
78407;BME280;67692;51.074;-1.790;2024-01-06T12:04:04;101258.03;;;6.04;96.20
78407;BME280;67692;51.074;-1.790;2024-01-06T12:06:31;101268.31;;;6.04;96.25
78407;BME280;67692;51.074;-1.790;2024-01-06T12:09:04;101260.59;;;6.04;95.25
78407;BME280;67692;51.074;-1.790;2024-01-06T12:11:30;101262.38;;;6.02;95.71
78407;BME280;67692;51.074;-1.790;2024-01-06T12:13:57;101264.75;;;6.07;95.48
78407;BME280;67692;51.074;-1.790;2024-01-06T12:16:24;101258.63;;;6.11;95.06
78407;BME280;67692;51.074;-1.790;2024-01-06T12:18:52;101255.91;;;6.14;95.69
78407;BME280;67692;51.074;-1.790;2024-01-06T12:21:22;101260.72;;;6.21;95.96
78407;BME280;67692;51.074;-1.790;2024-01-06T12:23:48;101262.84;;;6.32;95.49
78407;BME280;67692;51.074;-1.790;2024-01-06T12:26:16;101252.88;;;6.45;95.49
78407;BME280;67692;51.074;-1.790;2024-01-06T12:28:44;101260.75;;;6.42;93.23
78407;BME280;67692;51.074;-1.790;2024-01-06T12:31:11;101266.66;;;6.44;93.40
78407;BME280;67692;51.074;-1.790;2024-01-06T12:33:38;101265.63;;;6.48;93.94
78407;BME280;67692;51.074;-1.790;2024-01-06T12:36:07;101265.31;;;6.55;94.34
78407;BME280;67692;51.074;-1.790;2024-01-06T12:38:35;101273.84;;;6.56;93.59
78407;BME280;67692;51.074;-1.790;2024-01-06T12:41:02;101276.44;;;6.56;93.35
78407;BME280;67692;51.074;-1.790;2024-01-06T12:43:30;101274.00;;;6.53;93.22